메인 페이지
METAR-TAF:

METAR-TAF

공항 :

러벅, 텍사스, 미국

위도: 33-40-03N, 경도: 101-49-17W, 고도: 1000m

현재 날씨관측

예보는 19분 전, 08:53시(UTC)에 발표되었습니다.
동남동7kt
온도 8°C
습도 93%
기압 1016 hPa
시정: 14.5km
맑음

METAR: KLBB 200853Z 12007KT 9SM CLR 08/07 A3000 RMK AO2 SLP133 HZ ALQDS T00830067 56002

시각: 04:12 (09:12 UTC)

예보

예보는 41분 전, 08:31시(UTC)에 발표되었습니다.
예보 대상 시간: 20일 09시부터 21일 06시까지 (UTC)
동남동10kt
시정: 10km
고도 25000ft 상공 구름 조금
20일 0910시부터 (UTC)
남남동7kt
시정: 8.0km
고도 700ft 상공 구름 보통
고도 1000ft 상공 구름 많음
박무
20일 1100시부터 (UTC)
남남동7kt
시정: 6.4km
고도 400ft 상공 구름 보통
고도 700ft 상공 흐림
약한이슬비, 박무
20일 1700시부터 (UTC)
10kt
시정: 10km
고도 800ft 상공 구름 보통
고도 1200ft 상공 구름 많음
20일 1900시부터 (UTC)
11kt
시정: 10km
고도 2000ft 상공 구름 보통

TAF: KLBB 200831Z 2009/2106 12010KT P6SM FEW250 FM200910 15007KT 5SM BR SCT007 BKN010 FM201100 15007KT 4SM -DZ BR SCT004 OVC007 FM201700 19010KT P6SM SCT008 BKN012 FM201900 17011KT P6SM SCT020

4,000개 이상의 공항 관측 자료 및 예보 (METAR 및 TAF 보고).

지도상에서 검색 가능한 기상관측소가 노란 점과 빨간 점으로 표시되어 있습니다.

기상관측소 명을 보려면 표시 위로 마우스를 이동하세요.

날씨 관측과 예보를 보려면 클릭하세요.

지도 변경 : 확대하려면 엑스 표시가 있는 녹색 버튼, 축소하려면 빼기 표시가 있는 녹색 버튼, 다음 페이지의 지도를 보려면 녹색 화살표를 클릭하세요.


METAR-TAF: